createdAt,value
2022-09-02T04:00:31.851Z,60.22
2022-09-02T04:01:35.041Z,60.25
2022-09-02T04:02:31.949Z,60.22
2022-09-02T04:03:31.758Z,60.12
2022-09-02T04:04:31.758Z,60.05
2022-09-02T04:05:31.737Z,60.45
2022-09-02T04:06:32.728Z,60.55
2022-09-02T04:07:31.723Z,60.65
2022-09-02T04:08:31.701Z,60.96
2022-09-02T04:09:31.714Z,60.55
2022-09-02T04:10:31.681Z,60.45
2022-09-02T04:11:36.691Z,60.35
2022-09-02T04:12:32.211Z,59.75
2022-09-02T04:13:31.646Z,60.55
2022-09-02T04:14:31.645Z,60.75
2022-09-02T04:15:31.625Z,60.75
2022-09-02T04:16:31.714Z,60.15
2022-09-02T04:17:31.609Z,60.65
2022-09-02T04:18:31.596Z,60.75
2022-09-02T04:19:31.595Z,60.35
2022-09-02T04:20:31.567Z,59.95
2022-09-02T04:21:31.558Z,60.75
2022-09-02T04:22:36.569Z,60.75
2022-09-02T04:23:31.549Z,60.45
2022-09-02T04:24:31.541Z,60.45
2022-09-02T04:25:31.515Z,60.55
2022-09-02T04:26:31.499Z,60.45
2022-09-02T04:27:31.507Z,60.05
2022-09-02T04:28:31.478Z,60.55
2022-09-02T04:29:31.486Z,60.96
2022-09-02T04:30:31.458Z,60.96
2022-09-02T04:31:31.510Z,60.55
2022-09-02T04:32:31.434Z,60.25
2022-09-02T04:33:36.451Z,60.98
2022-09-02T04:34:31.413Z,60.38
2022-09-02T04:35:31.417Z,60.88
2022-09-02T04:36:31.405Z,60.65
2022-09-02T04:37:31.381Z,60.75
2022-09-02T04:38:31.366Z,61.08
2022-09-02T04:39:31.355Z,60.96
2022-09-02T04:40:31.367Z,60.75
2022-09-02T04:41:31.335Z,60.15
2022-09-02T04:42:31.320Z,59.77
2022-09-02T04:43:31.311Z,59.77
2022-09-02T04:44:36.323Z,60.35
2022-09-02T04:45:31.297Z,59.88
2022-09-02T04:46:34.511Z,59.24
2022-09-02T04:47:31.270Z,58.74
2022-09-02T04:48:31.254Z,58.84
2022-09-02T04:49:31.247Z,58.54
2022-09-02T04:50:31.245Z,59.17
2022-09-02T04:51:31.229Z,59.17
2022-09-02T04:52:31.210Z,58.87
2022-09-02T04:53:31.205Z,58.97
2022-09-02T04:54:31.192Z,58.26
2022-09-02T04:55:36.215Z,58.26
2022-09-02T04:56:31.166Z,58.97
2022-09-02T04:57:31.155Z,58.54
2022-09-02T04:58:31.141Z,57.86
2022-09-02T04:59:31.134Z,57.83
2022-09-02T05:00:31.133Z,57.73
2022-09-02T05:01:31.167Z,57.83
2022-09-02T05:02:31.152Z,57.73
2022-09-02T05:03:31.088Z,58.14
2022-09-02T05:04:31.076Z,57.73
2022-09-02T05:05:31.082Z,58.44
2022-09-02T05:06:39.515Z,57.53
2022-09-02T05:07:32.045Z,57.63
2022-09-02T05:08:31.031Z,57.63
2022-09-02T05:09:31.021Z,58.44
2022-09-02T05:10:31.027Z,58.81
2022-09-02T05:11:31.002Z,59.64
2022-09-02T05:12:30.990Z,60.35
2022-09-02T05:13:30.976Z,60.25
2022-09-02T05:14:30.995Z,60.75
2022-09-02T05:15:31.065Z,61.46
2022-09-02T05:16:30.945Z,62.16
2022-09-02T05:17:35.955Z,62.46
2022-09-02T05:18:30.919Z,62.46
2022-09-02T05:19:30.913Z,62.06
2022-09-02T05:20:30.909Z,62.16
2022-09-02T05:21:30.896Z,62.46
2022-09-02T05:22:30.876Z,62.46
2022-09-02T05:23:30.874Z,62.16
2022-09-02T05:24:30.851Z,63.07
2022-09-02T05:25:30.855Z,62.87
2022-09-02T05:26:30.829Z,64.07
2022-09-02T05:27:30.820Z,63.90
2022-09-02T05:28:35.828Z,63.40
2022-09-02T05:29:30.799Z,63.60
2022-09-02T05:30:30.800Z,64.48
2022-09-02T05:31:30.867Z,64.41
2022-09-02T05:32:34.372Z,64.51
2022-09-02T05:33:31.763Z,64.18
2022-09-02T05:34:30.741Z,64.61
2022-09-02T05:35:30.740Z,64.51
2022-09-02T05:36:30.723Z,64.61
2022-09-02T05:37:30.709Z,65.19
2022-09-02T05:38:30.695Z,64.07
2022-09-02T05:39:35.713Z,64.31
2022-09-02T05:40:30.767Z,64.31
2022-09-02T05:41:30.683Z,64.48
2022-09-02T05:42:30.652Z,64.18
2022-09-02T05:43:30.642Z,62.74
2022-09-02T05:44:30.627Z,62.94
2022-09-02T05:45:30.638Z,61.00
2022-09-02T05:46:30.692Z,59.69
2022-09-02T05:47:30.597Z,59.36
2022-09-02T05:48:30.588Z,58.83
2022-09-02T05:49:30.574Z,57.70
2022-09-02T05:50:35.593Z,57.19
2022-09-02T05:51:30.551Z,56.56
2022-09-02T05:52:30.540Z,56.36
2022-09-02T05:53:30.531Z,56.56
2022-09-02T05:54:30.540Z,56.56
2022-09-02T05:55:30.520Z,56.86
2022-09-02T05:56:30.502Z,56.13
2022-09-02T05:57:30.487Z,56.06
2022-09-02T05:58:30.486Z,55.46
2022-09-02T05:59:30.487Z,55.99
2022-09-02T06:00:30.464Z,57.09
2022-09-02T06:01:35.547Z,56.62
2022-09-02T06:02:30.560Z,58.22
2022-09-02T06:03:30.428Z,57.32
2022-09-02T06:04:30.412Z,58.33
2022-09-02T06:05:30.416Z,58.73
2022-09-02T06:06:30.389Z,58.62
2022-09-02T06:07:30.376Z,57.29
2022-09-02T06:08:30.368Z,56.59
2022-09-02T06:09:30.355Z,56.41
2022-09-02T06:10:30.362Z,57.62
2022-09-02T06:11:30.335Z,56.51
2022-09-02T06:12:39.349Z,57.35
2022-09-02T06:13:31.310Z,57.32
2022-09-02T06:14:30.318Z,58.53
2022-09-02T06:15:30.356Z,58.00
2022-09-02T06:16:30.276Z,57.22
2022-09-02T06:17:30.280Z,57.19
2022-09-02T06:18:30.255Z,56.79
2022-09-02T06:19:30.248Z,56.46
2022-09-02T06:20:30.252Z,56.86
2022-09-02T06:21:30.222Z,56.49
2022-09-02T06:22:30.209Z,55.66
2022-09-02T06:23:35.231Z,56.96
2022-09-02T06:24:30.187Z,56.16
2022-09-02T06:25:30.178Z,56.26
2022-09-02T06:26:30.176Z,55.76
2022-09-02T06:27:30.155Z,55.76
2022-09-02T06:28:30.161Z,55.03
2022-09-02T06:29:30.135Z,55.13
2022-09-02T06:30:30.159Z,54.13
2022-09-02T06:31:34.379Z,55.03
2022-09-02T06:32:30.102Z,54.05
2022-09-02T06:33:30.095Z,54.45
2022-09-02T06:34:35.103Z,54.33
2022-09-02T06:35:30.068Z,54.96
2022-09-02T06:36:30.066Z,53.95
2022-09-02T06:37:30.056Z,54.55
2022-09-02T06:38:30.033Z,54.13
2022-09-02T06:39:30.023Z,53.92
2022-09-02T06:40:30.075Z,52.92
2022-09-02T06:41:30.009Z,53.42
2022-09-02T06:42:30.026Z,53.62
2022-09-02T06:43:29.980Z,53.92
2022-09-02T06:44:32.528Z,53.20
2022-09-02T06:45:34.988Z,52.49
2022-09-02T06:46:30.054Z,51.59
2022-09-02T06:47:29.935Z,51.56
2022-09-02T06:48:29.936Z,51.34
2022-09-02T06:49:29.914Z,50.66
2022-09-02T06:50:29.909Z,51.04
2022-09-02T06:51:29.888Z,50.24
2022-09-02T06:52:29.902Z,50.21
2022-09-02T06:53:29.868Z,49.16
2022-09-02T06:54:29.856Z,49.07
2022-09-02T06:55:29.901Z,48.86
2022-09-02T06:56:34.857Z,48.57
2022-09-02T06:57:31.321Z,49.08
2022-09-02T06:58:29.820Z,50.31
2022-09-02T06:59:29.801Z,49.79
2022-09-02T07:00:29.799Z,49.58
2022-09-02T07:01:29.884Z,50.39
2022-09-02T07:02:29.764Z,49.81
2022-09-02T07:03:29.761Z,50.11
2022-09-02T07:04:29.768Z,50.04
2022-09-02T07:05:29.746Z,50.63
2022-09-02T07:06:29.742Z,49.93
2022-09-02T07:07:34.736Z,49.84
2022-09-02T07:08:29.697Z,50.94
2022-09-02T07:09:29.689Z,50.34
2022-09-02T07:10:29.712Z,49.84
2022-09-02T07:11:29.670Z,50.56
2022-09-02T07:12:29.657Z,50.34
2022-09-02T07:13:29.646Z,50.94
2022-09-02T07:14:29.631Z,51.24
2022-09-02T07:15:29.640Z,51.06
2022-09-02T07:16:29.646Z,51.17
2022-09-02T07:17:29.600Z,51.26
2022-09-02T07:18:34.611Z,51.44
2022-09-02T07:19:29.578Z,51.74
2022-09-02T07:20:29.565Z,51.14
2022-09-02T07:21:29.571Z,51.24
2022-09-02T07:22:29.551Z,51.34
2022-09-02T07:23:29.551Z,51.24
2022-09-02T07:24:29.523Z,50.63
2022-09-02T07:25:29.517Z,50.24
2022-09-02T07:26:29.514Z,49.71
2022-09-02T07:27:29.489Z,50.92
2022-09-02T07:28:29.476Z,50.42
2022-09-02T07:29:34.490Z,50.62
2022-09-02T07:30:29.516Z,50.62
2022-09-02T07:31:29.461Z,50.92
2022-09-02T07:32:29.432Z,50.51
2022-09-02T07:33:29.425Z,50.51
2022-09-02T07:34:29.415Z,50.49
2022-09-02T07:35:29.404Z,49.81
2022-09-02T07:36:29.413Z,50.13
2022-09-02T07:37:29.378Z,50.54
2022-09-02T07:38:29.369Z,50.84
2022-09-02T07:39:29.361Z,50.94
2022-09-02T07:40:34.408Z,50.94
2022-09-02T07:41:29.345Z,50.92
2022-09-02T07:42:29.325Z,50.94
2022-09-02T07:43:29.316Z,51.04
2022-09-02T07:44:29.313Z,50.81
2022-09-02T07:45:29.292Z,51.01
2022-09-02T07:46:29.394Z,50.71
2022-09-02T07:47:29.268Z,51.01
2022-09-02T07:48:29.262Z,51.42
2022-09-02T07:50:14.466Z,50.62
2022-09-02T07:50:30.234Z,50.99
2022-09-02T07:51:34.267Z,50.69
2022-09-02T07:52:29.212Z,50.59
2022-09-02T07:53:29.204Z,50.49
2022-09-02T07:54:29.188Z,50.07
2022-09-02T07:55:29.180Z,50.46
2022-09-02T07:56:29.184Z,49.57
2022-09-02T07:57:29.160Z,50.46
2022-09-02T07:58:29.144Z,49.89
2022-09-02T07:59:29.135Z,49.76
2022-09-02T08:00:29.122Z,50.29
2022-09-02T08:01:29.348Z,50.19
2022-09-02T08:02:34.144Z,50.19
2022-09-02T08:03:29.095Z,50.16
2022-09-02T08:04:29.077Z,50.37
2022-09-02T08:05:29.072Z,50.46
2022-09-02T08:06:34.935Z,49.57
2022-09-02T08:07:30.045Z,50.16
2022-09-02T08:08:29.037Z,50.16
2022-09-02T08:09:29.024Z,50.16
2022-09-02T08:10:29.010Z,50.87
2022-09-02T08:11:29.013Z,49.87
2022-09-02T08:12:28.989Z,49.76
2022-09-02T08:13:34.002Z,50.34
2022-09-02T08:14:28.973Z,50.04
2022-09-02T08:15:28.956Z,49.84
2022-09-02T08:16:29.207Z,49.16
2022-09-02T08:17:28.935Z,49.16
2022-09-02T08:18:28.927Z,49.24
2022-09-02T08:19:28.912Z,48.94
2022-09-02T08:20:28.904Z,48.61
2022-09-02T08:21:28.899Z,48.72
2022-09-02T08:22:28.889Z,48.19
2022-09-02T08:23:37.486Z,46.77
2022-09-02T08:24:34.877Z,46.95
2022-09-02T08:25:28.844Z,46.35
2022-09-02T08:26:28.851Z,46.85
2022-09-02T08:27:28.822Z,47.45
2022-09-02T08:28:28.812Z,46.97
2022-09-02T08:29:28.803Z,47.57
2022-09-02T08:30:28.790Z,46.67
2022-09-02T08:31:28.825Z,48.07
2022-09-02T08:32:28.773Z,46.27
2022-09-02T08:33:28.803Z,46.37
2022-09-02T08:34:28.747Z,47.09
2022-09-02T08:35:33.763Z,47.19
2022-09-02T08:36:28.733Z,47.19
2022-09-02T08:37:28.724Z,47.30
2022-09-02T08:38:28.701Z,47.39
2022-09-02T08:39:28.691Z,47.09
2022-09-02T08:40:28.709Z,47.60
2022-09-02T08:41:28.684Z,47.30
2022-09-02T08:42:28.657Z,47.09
2022-09-02T08:43:28.666Z,47.60
2022-09-02T08:44:28.636Z,47.30
2022-09-02T08:45:28.671Z,47.60
2022-09-02T08:46:33.646Z,47.27
2022-09-02T08:47:28.601Z,47.27
2022-09-02T08:48:28.592Z,47.47
2022-09-02T08:49:28.583Z,46.95
2022-09-02T08:50:28.572Z,47.35
2022-09-02T08:51:33.783Z,47.05
2022-09-02T08:52:29.549Z,45.95
2022-09-02T08:53:28.552Z,46.45
2022-09-02T08:54:28.566Z,45.63
2022-09-02T08:55:28.525Z,45.75
2022-09-02T08:56:28.522Z,46.35
2022-09-02T08:57:33.513Z,45.55
2022-09-02T08:58:28.482Z,45.55
2022-09-02T08:59:28.504Z,45.13
2022-09-02T09:00:28.461Z,44.33
2022-09-02T09:01:28.544Z,44.83
2022-09-02T09:02:28.518Z,44.73
2022-09-02T09:03:28.429Z,45.13
2022-09-02T09:04:28.416Z,44.63
2022-09-02T09:05:28.409Z,44.55
2022-09-02T09:06:28.407Z,44.43
2022-09-02T09:07:28.421Z,43.93
2022-09-02T09:08:33.397Z,43.93
2022-09-02T09:09:28.361Z,43.61
2022-09-02T09:10:28.352Z,43.81
2022-09-02T09:11:28.358Z,42.61
2022-09-02T09:12:28.332Z,43.51
2022-09-02T09:13:28.322Z,43.01
2022-09-02T09:14:28.316Z,43.31
2022-09-02T09:15:28.295Z,43.01
2022-09-02T09:16:32.046Z,43.21
2022-09-02T09:17:28.284Z,42.32
2022-09-02T09:18:28.265Z,42.11
2022-09-02T09:19:33.273Z,41.82
2022-09-02T09:20:28.250Z,42.71
2022-09-02T09:21:28.234Z,42.19
2022-09-02T09:22:28.232Z,41.97
2022-09-02T09:23:28.501Z,42.18
2022-09-02T09:24:29.195Z,41.16
2022-09-02T09:25:28.188Z,41.53
2022-09-02T09:26:28.174Z,40.74
2022-09-02T09:27:28.174Z,39.56
2022-09-02T09:28:28.151Z,40.26
2022-09-02T09:29:28.140Z,40.86
2022-09-02T09:30:33.156Z,40.76
2022-09-02T09:31:28.146Z,40.86
2022-09-02T09:32:28.118Z,40.66
2022-09-02T09:33:28.101Z,40.95
2022-09-02T09:34:28.086Z,40.16
2022-09-02T09:35:28.075Z,40.66
2022-09-02T09:36:28.064Z,40.98
2022-09-02T09:37:30.720Z,40.86
2022-09-02T09:38:28.045Z,40.66
2022-09-02T09:39:28.030Z,40.36
2022-09-02T09:40:28.082Z,39.94
2022-09-02T09:41:33.029Z,39.84
2022-09-02T09:42:28.033Z,39.83
2022-09-02T09:43:28.053Z,40.20
2022-09-02T09:44:27.975Z,39.80
2022-09-02T09:45:28.046Z,39.03
2022-09-02T09:46:27.960Z,40.34
2022-09-02T09:47:27.953Z,40.24
2022-09-02T09:48:27.959Z,40.84
2022-09-02T09:49:27.920Z,39.84
2022-09-02T09:50:27.926Z,39.74
2022-09-02T09:51:27.899Z,40.14
2022-09-02T09:52:32.934Z,39.94
2022-09-02T09:53:27.884Z,40.04
2022-09-02T09:54:27.871Z,39.26
2022-09-02T09:55:27.873Z,39.46
2022-09-02T09:56:27.844Z,39.66
2022-09-02T09:57:31.469Z,39.16
2022-09-02T09:58:28.828Z,39.46
2022-09-02T09:59:27.816Z,39.46
2022-09-02T10:00:27.800Z,39.16
2022-09-02T10:01:27.910Z,39.25
2022-09-02T10:02:27.872Z,39.64
2022-09-02T10:03:32.914Z,39.26
2022-09-02T10:04:44.010Z,37.77
2022-09-02T10:05:28.743Z,38.96
2022-09-02T10:06:27.738Z,39.76
2022-09-02T10:07:27.735Z,38.54
2022-09-02T10:08:27.734Z,39.56
2022-09-02T10:09:27.701Z,38.25
2022-09-02T10:10:27.698Z,38.35
2022-09-02T10:11:27.686Z,37.95
2022-09-02T10:12:27.679Z,37.97
2022-09-02T10:13:27.665Z,38.46
2022-09-02T10:14:32.683Z,38.35
2022-09-02T10:15:27.638Z,38.65
2022-09-02T10:16:27.678Z,38.25
2022-09-02T10:17:27.634Z,38.35
2022-09-02T10:18:27.604Z,38.05
2022-09-02T10:19:27.590Z,38.43
2022-09-02T10:20:27.581Z,36.83
2022-09-02T10:21:27.568Z,37.43
2022-09-02T10:22:38.482Z,37.43
2022-09-02T10:23:28.549Z,36.54
2022-09-02T10:24:27.537Z,37.45
2022-09-02T10:25:32.567Z,38.25
2022-09-02T10:26:27.518Z,37.85
2022-09-02T10:27:27.540Z,38.05
2022-09-02T10:28:27.495Z,38.15
2022-09-02T10:29:27.484Z,37.04
2022-09-02T10:30:27.471Z,36.34
2022-09-02T10:31:27.523Z,36.65
2022-09-02T10:32:27.466Z,36.34
2022-09-02T10:33:27.490Z,36.93
2022-09-02T10:34:27.439Z,36.93
2022-09-02T10:35:27.415Z,37.23
2022-09-02T10:36:32.513Z,36.92
2022-09-02T10:37:27.411Z,36.82
2022-09-02T10:38:27.387Z,36.21
2022-09-02T10:39:27.372Z,34.83
2022-09-02T10:40:27.501Z,35.03
2022-09-02T10:41:27.356Z,35.03
2022-09-02T10:42:27.354Z,34.92
2022-09-02T10:43:27.327Z,35.33
2022-09-02T10:44:27.323Z,35.52
2022-09-02T10:45:27.304Z,35.72
2022-09-02T10:46:27.348Z,35.71
2022-09-02T10:47:32.317Z,34.91
2022-09-02T10:48:27.274Z,34.71
2022-09-02T10:49:27.264Z,35.42
2022-09-02T10:50:27.260Z,35.42
2022-09-02T10:51:27.245Z,34.92
2022-09-02T10:52:27.249Z,35.21
2022-09-02T10:53:27.218Z,35.79
2022-09-02T10:54:27.211Z,34.99
2022-09-02T10:55:27.196Z,35.10
2022-09-02T10:56:27.188Z,36.10
2022-09-02T10:57:27.195Z,36.92
2022-09-02T10:58:32.189Z,36.80
2022-09-02T10:59:27.156Z,36.70
2022-09-02T11:00:27.162Z,36.21
2022-09-02T11:01:27.132Z,37.00
2022-09-02T11:02:27.148Z,36.19
2022-09-02T11:03:27.135Z,36.10
2022-09-02T11:04:27.101Z,36.00
2022-09-02T11:05:27.107Z,35.63
2022-09-02T11:06:31.796Z,36.52
2022-09-02T11:07:28.075Z,36.82
2022-09-02T11:08:31.369Z,36.22
2022-09-02T11:09:32.073Z,36.32
2022-09-02T11:10:27.037Z,36.32
2022-09-02T11:11:27.022Z,36.21
2022-09-02T11:12:27.023Z,35.50
2022-09-02T11:13:26.999Z,36.21
2022-09-02T11:14:26.991Z,36.40
2022-09-02T11:15:26.991Z,36.60
2022-09-02T11:16:27.079Z,36.19
2022-09-02T11:17:26.967Z,36.38
2022-09-02T11:18:27.030Z,35.89
2022-09-02T11:19:26.933Z,35.49
2022-09-02T11:20:31.954Z,35.99
2022-09-02T11:21:31.912Z,35.79
2022-09-02T11:22:27.912Z,35.13
2022-09-02T11:23:26.890Z,36.12
2022-09-02T11:24:26.883Z,36.32
2022-09-02T11:25:26.868Z,35.91
2022-09-02T11:26:26.867Z,35.31
2022-09-02T11:27:41.479Z,34.91
2022-09-02T11:28:27.845Z,35.41
2022-09-02T11:29:26.825Z,35.52
2022-09-02T11:30:26.815Z,36.12
2022-09-02T11:31:32.904Z,35.82
2022-09-02T11:32:26.801Z,36.02
2022-09-02T11:33:26.802Z,36.22
2022-09-02T11:34:26.770Z,35.91
2022-09-02T11:35:26.760Z,35.79
2022-09-02T11:36:30.950Z,35.36
2022-09-02T11:37:27.757Z,34.15
2022-09-02T11:38:26.736Z,34.53
2022-09-02T11:39:36.622Z,34.31
2022-09-02T11:40:36.668Z,34.10
2022-09-02T11:41:36.731Z,33.69
2022-09-02T11:42:32.711Z,33.11
2022-09-02T11:43:26.714Z,33.11
2022-09-02T11:44:29.381Z,32.53
2022-09-02T11:45:26.707Z,33.04
2022-09-02T11:46:26.678Z,33.24
2022-09-02T11:47:26.636Z,33.15
2022-09-02T11:48:26.630Z,33.85
2022-09-02T11:49:26.715Z,34.15
2022-09-02T11:50:26.625Z,34.64
2022-09-02T11:51:26.586Z,34.84
2022-09-02T11:52:26.578Z,34.96
2022-09-02T11:53:31.597Z,34.76
2022-09-02T11:54:26.558Z,34.98
2022-09-02T11:55:26.553Z,34.86
2022-09-02T11:56:26.537Z,34.36
2022-09-02T11:57:26.519Z,35.06
2022-09-02T11:58:26.520Z,35.06
2022-09-02T11:59:26.499Z,35.06
2022-09-02T12:00:26.491Z,35.16
2022-09-02T12:01:26.479Z,34.36
2022-09-02T12:02:26.483Z,34.76
2022-09-02T12:03:43.057Z,35.06
2022-09-02T12:05:02.730Z,34.45
2022-09-02T12:05:27.498Z,34.13
2022-09-02T12:06:26.546Z,33.14
2022-09-02T12:07:32.010Z,32.42
2022-09-02T12:08:27.415Z,31.87
2022-09-02T12:09:26.399Z,30.29
2022-09-02T12:10:26.390Z,29.83
2022-09-02T12:11:26.368Z,28.72
2022-09-02T12:12:26.363Z,28.50
2022-09-02T12:13:26.360Z,28.99
2022-09-02T12:14:26.338Z,28.30
2022-09-02T12:15:31.347Z,28.31
2022-09-02T12:16:26.442Z,28.92
2022-09-02T12:17:26.339Z,29.02
2022-09-02T12:18:26.474Z,28.92
2022-09-02T12:19:26.322Z,28.74
2022-09-02T12:20:26.275Z,28.44
2022-09-02T12:21:26.264Z,28.41
2022-09-02T12:22:26.252Z,28.40
2022-09-02T12:23:26.254Z,27.86
2022-09-02T12:24:26.452Z,26.17
2022-09-02T12:25:27.025Z,25.46
2022-09-02T12:26:26.215Z,25.65
2022-09-02T12:27:26.198Z,25.46
2022-09-02T12:28:31.482Z,26.65
2022-09-02T12:29:26.200Z,26.77
2022-09-02T12:30:26.195Z,26.93
2022-09-02T12:31:26.212Z,27.17
2022-09-02T12:32:26.145Z,27.39
2022-09-02T12:33:26.155Z,27.47
2022-09-02T12:34:26.135Z,26.48
2022-09-02T12:35:26.226Z,26.59
2022-09-02T12:36:26.107Z,26.01
2022-09-02T12:37:26.112Z,27.22
2022-09-02T12:38:26.092Z,27.11
2022-09-02T12:39:26.073Z,26.78
2022-09-02T12:40:26.169Z,26.47
2022-09-02T12:41:32.077Z,25.28
2022-09-02T12:42:26.085Z,25.56
2022-09-02T12:43:26.086Z,25.95
2022-09-02T12:44:26.023Z,25.49
2022-09-02T12:45:29.203Z,26.79
2022-09-02T12:46:26.109Z,27.27
2022-09-02T12:47:25.992Z,26.20
2022-09-02T12:48:38.451Z,26.78
2022-09-02T12:49:26.976Z,25.77
2022-09-02T12:50:25.962Z,26.24
2022-09-02T12:51:25.951Z,25.04
2022-09-02T12:52:25.947Z,25.35
2022-09-02T12:53:25.945Z,25.56
2022-09-02T12:54:30.948Z,25.37
2022-09-02T12:55:25.914Z,25.98
2022-09-02T12:56:25.931Z,25.48
2022-09-02T12:57:25.891Z,25.46
2022-09-02T12:58:25.888Z,25.17
2022-09-02T12:59:25.867Z,25.05
2022-09-02T13:00:25.856Z,26.28
2022-09-02T13:01:26.022Z,26.72
2022-09-02T13:02:28.212Z,28.06
2022-09-02T13:03:25.836Z,28.59
2022-09-02T13:04:25.819Z,30.00
2022-09-02T13:05:30.835Z,29.64
2022-09-02T13:06:25.790Z,30.63
2022-09-02T13:07:25.792Z,30.22
2022-09-02T13:08:25.780Z,30.93
2022-09-02T13:09:25.829Z,31.23
2022-09-02T13:10:25.758Z,31.13
2022-09-02T13:11:25.761Z,31.34
2022-09-02T13:12:25.731Z,31.74
2022-09-02T13:13:25.736Z,32.03
2022-09-02T13:14:25.706Z,32.53
2022-09-02T13:15:25.697Z,31.95
2022-09-02T13:16:30.706Z,31.85
2022-09-02T13:17:36.174Z,32.45
2022-09-02T13:18:26.698Z,31.65
2022-09-02T13:19:25.654Z,32.15
2022-09-02T13:20:25.640Z,32.63
2022-09-02T13:21:25.633Z,31.63
2022-09-02T13:22:25.618Z,31.14
2022-09-02T13:23:31.506Z,32.63
2022-09-02T13:24:26.595Z,31.14
2022-09-02T13:25:25.684Z,30.94
2022-09-02T13:26:47.953Z,31.15
2022-09-02T13:27:26.568Z,32.05
2022-09-02T13:28:25.562Z,32.17
2022-09-02T13:29:30.579Z,32.46
2022-09-02T13:30:25.563Z,32.46
2022-09-02T13:31:25.567Z,32.66
2022-09-02T13:32:25.509Z,32.36
2022-09-02T13:33:25.515Z,33.15
2022-09-02T13:34:25.488Z,33.06
2022-09-02T13:35:25.478Z,32.46
2022-09-02T13:36:25.483Z,33.65
2022-09-02T13:37:25.464Z,32.36
2022-09-02T13:38:25.693Z,32.38
2022-09-02T13:39:25.437Z,33.25
2022-09-02T13:40:25.422Z,32.28
2022-09-02T13:41:25.427Z,33.25
2022-09-02T13:42:32.918Z,33.25
2022-09-02T13:43:26.147Z,32.66
2022-09-02T13:44:25.379Z,32.66
2022-09-02T13:45:25.370Z,32.56
2022-09-02T13:46:25.387Z,32.26
2022-09-02T13:47:25.347Z,32.86
2022-09-02T13:48:25.348Z,32.46
2022-09-02T13:49:25.333Z,32.26
2022-09-02T13:50:25.315Z,32.66
2022-09-02T13:51:25.309Z,32.86
2022-09-02T13:53:19.675Z,32.76
2022-09-02T13:54:11.736Z,32.56
2022-09-02T13:54:26.449Z,32.66
2022-09-02T13:55:25.260Z,32.56
2022-09-02T13:56:25.254Z,32.06
2022-09-02T13:57:25.926Z,32.96
2022-09-02T13:58:25.237Z,31.77
2022-09-02T13:59:25.217Z,32.96
2022-09-02T14:00:25.310Z,32.26
2022-09-02T14:01:25.443Z,32.36
2022-09-02T14:02:25.444Z,32.26
2022-09-02T14:03:25.518Z,32.94
2022-09-02T14:04:30.188Z,32.15
2022-09-02T14:05:25.150Z,32.94
2022-09-02T14:06:25.137Z,32.35
2022-09-02T14:07:25.204Z,32.45
2022-09-02T14:08:25.127Z,32.76
2022-09-02T14:09:25.112Z,31.47
2022-09-02T14:10:25.094Z,32.36
2022-09-02T14:11:25.108Z,32.76
2022-09-02T14:12:25.073Z,32.46
2022-09-02T14:13:25.078Z,32.26
2022-09-02T14:14:25.073Z,32.56
2022-09-02T14:15:30.161Z,32.05
2022-09-02T14:16:25.070Z,32.66
2022-09-02T14:17:25.046Z,31.67
2022-09-02T14:18:25.052Z,33.25
2022-09-02T14:19:24.996Z,32.66
2022-09-02T14:20:24.984Z,31.67
2022-09-02T14:21:24.997Z,32.56
2022-09-02T14:22:24.966Z,32.96
2022-09-02T14:23:24.963Z,32.36
2022-09-02T14:24:24.946Z,32.54
2022-09-02T14:25:27.430Z,32.56
2022-09-02T14:26:29.952Z,32.64
2022-09-02T14:27:24.927Z,32.56
2022-09-02T14:28:24.907Z,32.46
2022-09-02T14:29:24.886Z,33.06
2022-09-02T14:30:24.887Z,31.77
2022-09-02T14:31:24.885Z,32.66
2022-09-02T14:32:24.851Z,32.46
2022-09-02T14:33:24.853Z,32.36
2022-09-02T14:34:24.833Z,32.05
2022-09-02T14:35:24.820Z,32.54
2022-09-02T14:36:24.809Z,32.84
2022-09-02T14:37:29.825Z,32.45
2022-09-02T14:38:24.804Z,32.54
2022-09-02T14:39:24.826Z,32.75
2022-09-02T14:40:24.764Z,32.45
2022-09-02T14:41:24.754Z,32.15
2022-09-02T14:42:28.403Z,31.65
2022-09-02T14:43:24.750Z,32.05
2022-09-02T14:44:24.725Z,31.95
2022-09-02T14:45:24.713Z,31.85
2022-09-02T14:46:24.798Z,32.15
2022-09-02T14:47:24.688Z,32.75
2022-09-02T14:48:29.736Z,32.75
2022-09-02T14:49:24.668Z,32.45
2022-09-02T14:50:24.661Z,32.45
2022-09-02T14:51:24.646Z,32.64
2022-09-02T14:52:24.632Z,32.75
2022-09-02T14:53:24.630Z,32.56
2022-09-02T14:54:24.622Z,32.64
2022-09-02T14:55:24.601Z,32.45
2022-09-02T14:56:24.590Z,32.45
2022-09-02T14:57:24.580Z,31.75
2022-09-02T14:58:27.368Z,32.45
2022-09-02T14:59:29.591Z,31.55
2022-09-02T15:00:24.548Z,32.54
2022-09-02T15:01:24.581Z,32.64
2022-09-02T15:02:24.527Z,32.46
2022-09-02T15:03:24.513Z,32.46
2022-09-02T15:04:24.514Z,32.76
2022-09-02T15:05:24.549Z,32.36
2022-09-02T15:06:24.481Z,32.66
2022-09-02T15:07:24.476Z,33.04
2022-09-02T15:08:24.593Z,32.64
2022-09-02T15:09:24.462Z,31.75
2022-09-02T15:10:29.477Z,31.85
2022-09-02T15:11:24.431Z,32.24
2022-09-02T15:12:24.421Z,32.84
2022-09-02T15:13:24.407Z,31.95
2022-09-02T15:14:24.401Z,32.24
2022-09-02T15:15:24.503Z,32.05
2022-09-02T15:16:24.381Z,31.85
2022-09-02T15:17:24.360Z,31.95
2022-09-02T15:18:24.636Z,32.64
2022-09-02T15:19:24.350Z,32.24
2022-09-02T15:20:24.327Z,32.15
2022-09-02T15:21:29.343Z,32.54
2022-09-02T15:22:24.310Z,32.54
2022-09-02T15:23:24.444Z,32.75
2022-09-02T15:24:24.294Z,32.15
2022-09-02T15:25:24.274Z,32.75
2022-09-02T15:26:24.263Z,32.45
2022-09-02T15:27:24.259Z,32.64
2022-09-02T15:28:24.241Z,31.93
2022-09-02T15:29:28.782Z,31.65
2022-09-02T15:30:24.219Z,31.65
2022-09-02T15:31:24.262Z,31.35
2022-09-02T15:32:29.218Z,31.15
2022-09-02T15:33:24.186Z,31.67
2022-09-02T15:34:24.186Z,31.67
2022-09-02T15:35:24.198Z,31.15
2022-09-02T15:36:24.152Z,32.24
2022-09-02T15:37:24.142Z,32.05
2022-09-02T15:38:24.130Z,31.85
2022-09-02T15:39:24.217Z,32.26
2022-09-02T15:40:24.110Z,31.65
2022-09-02T15:41:24.098Z,31.37
2022-09-02T15:42:24.086Z,32.26
2022-09-02T15:43:29.101Z,32.56
2022-09-02T15:44:24.076Z,32.17
2022-09-02T15:45:24.054Z,31.67
2022-09-02T15:46:24.109Z,32.17
2022-09-02T15:47:24.036Z,32.66
2022-09-02T15:48:24.019Z,31.85
2022-09-02T15:49:24.019Z,31.75
2022-09-02T15:50:24.000Z,32.35
2022-09-02T15:51:23.992Z,32.05
2022-09-02T15:52:24.001Z,32.15
2022-09-02T15:53:24.104Z,32.05
2022-09-02T15:54:29.002Z,32.05
2022-09-02T15:55:29.454Z,32.64
2022-09-02T15:56:24.931Z,32.05
2022-09-02T15:57:23.930Z,32.05
2022-09-02T15:58:23.914Z,31.27
2022-09-02T15:59:23.920Z,32.26
2022-09-02T16:00:23.892Z,32.06
2022-09-02T16:01:25.302Z,31.47
2022-09-02T16:02:23.938Z,31.67
2022-09-02T16:03:23.982Z,32.56
2022-09-02T16:04:23.854Z,31.67
2022-09-02T16:05:28.858Z,32.06
2022-09-02T16:06:23.824Z,31.87
2022-09-02T16:07:23.818Z,32.06
2022-09-02T16:08:23.800Z,31.96
2022-09-02T16:09:23.803Z,32.06
2022-09-02T16:10:23.781Z,31.67
2022-09-02T16:11:23.770Z,32.56
2022-09-02T16:12:23.759Z,32.86
2022-09-02T16:13:23.964Z,32.56
2022-09-02T16:14:23.765Z,32.46
2022-09-02T16:15:23.741Z,32.36
2022-09-02T16:16:28.760Z,32.36
2022-09-02T16:17:23.707Z,32.76
2022-09-02T16:18:23.703Z,33.06
2022-09-02T16:19:23.696Z,31.87
2022-09-02T16:20:23.670Z,32.86
2022-09-02T16:21:23.661Z,32.46
2022-09-02T16:22:23.646Z,32.46
2022-09-02T16:23:23.789Z,31.77
2022-09-02T16:24:23.643Z,31.67
2022-09-02T16:25:23.619Z,33.06
2022-09-02T16:26:23.615Z,32.66
2022-09-02T16:27:28.617Z,32.17
2022-09-02T16:28:23.603Z,33.06
2022-09-02T16:29:23.587Z,33.25
2022-09-02T16:30:23.580Z,32.66
2022-09-02T16:31:23.641Z,33.06
2022-09-02T16:32:27.367Z,32.66
2022-09-02T16:33:23.662Z,32.96
2022-09-02T16:34:23.556Z,32.38
2022-09-02T16:35:23.505Z,32.36
2022-09-02T16:36:23.493Z,31.87
2022-09-02T16:37:23.513Z,32.38
2022-09-02T16:38:28.494Z,32.57
2022-09-02T16:39:23.552Z,32.48
2022-09-02T16:40:23.452Z,33.27
2022-09-02T16:41:23.476Z,33.07
2022-09-02T16:42:24.663Z,33.06
2022-09-02T16:43:23.567Z,32.57
2022-09-02T16:44:23.409Z,32.48
2022-09-02T16:45:23.406Z,31.78
2022-09-02T16:46:23.465Z,32.67
2022-09-02T16:47:23.387Z,32.67
2022-09-02T16:48:25.755Z,32.28
2022-09-02T16:49:28.376Z,32.38
2022-09-02T16:50:23.375Z,32.39
2022-09-02T16:51:23.331Z,32.57
2022-09-02T16:52:23.318Z,33.37